createdAt,value
2022-08-19T00:00:53.837Z,86.51
2022-08-19T00:01:53.915Z,86.51
2022-08-19T00:02:54.098Z,86.61
2022-08-19T00:03:53.816Z,86.61
2022-08-19T00:04:53.935Z,86.51
2022-08-19T00:05:53.764Z,86.51
2022-08-19T00:06:53.754Z,86.51
2022-08-19T00:07:53.750Z,86.71
2022-08-19T00:08:53.758Z,86.91
2022-08-19T00:09:53.746Z,87.05
2022-08-19T00:10:53.732Z,87.05
2022-08-19T00:11:53.727Z,87.21
2022-08-19T00:12:53.713Z,87.25
2022-08-19T00:13:53.673Z,87.41
2022-08-19T00:14:53.705Z,87.51
2022-08-19T00:15:53.705Z,87.62
2022-08-19T00:16:53.648Z,87.82
2022-08-19T00:17:53.632Z,88.12
2022-08-19T00:18:53.619Z,88.42
2022-08-19T00:19:53.621Z,88.22
2022-08-19T00:20:53.623Z,88.22
2022-08-19T00:21:53.612Z,88.22
2022-08-19T00:22:53.752Z,88.32
2022-08-19T00:23:53.579Z,88.32
2022-08-19T00:24:53.555Z,88.52
2022-08-19T00:25:53.585Z,88.62
2022-08-19T00:26:53.539Z,88.62
2022-08-19T00:27:53.530Z,88.52
2022-08-19T00:28:53.525Z,88.62
2022-08-19T00:29:53.539Z,88.62
2022-08-19T00:30:53.486Z,88.82
2022-08-19T00:31:53.511Z,88.82
2022-08-19T00:32:53.670Z,89.03
2022-08-19T00:33:53.453Z,88.82
2022-08-19T00:34:53.449Z,88.82
2022-08-19T00:35:53.929Z,88.82
2022-08-19T00:36:53.442Z,88.62
2022-08-19T00:37:53.431Z,88.62
2022-08-19T00:38:53.395Z,88.52
2022-08-19T00:39:53.418Z,88.62
2022-08-19T00:40:53.383Z,88.62
2022-08-19T00:41:53.396Z,88.56
2022-08-19T00:42:53.565Z,88.66
2022-08-19T00:43:53.350Z,88.56
2022-08-19T00:44:53.338Z,88.36
2022-08-19T00:45:53.332Z,88.36
2022-08-19T00:46:55.664Z,88.26
2022-08-19T00:47:53.309Z,88.16
2022-08-19T00:48:53.294Z,88.16
2022-08-19T00:49:53.301Z,88.16
2022-08-19T00:50:53.271Z,88.06
2022-08-19T00:51:53.252Z,88.36
2022-08-19T00:52:53.460Z,88.50
2022-08-19T00:53:53.247Z,88.60
2022-08-19T00:54:53.224Z,88.60
2022-08-19T00:55:53.221Z,88.60
2022-08-19T00:56:53.204Z,88.60
2022-08-19T00:57:53.209Z,88.50
2022-08-19T00:58:53.196Z,88.60
2022-08-19T01:00:00.343Z,88.60
2022-08-19T01:00:53.170Z,88.60
2022-08-19T01:01:53.172Z,88.50
2022-08-19T01:02:53.364Z,88.50
2022-08-19T01:03:57.485Z,88.50
2022-08-19T01:04:53.119Z,88.50
2022-08-19T01:05:53.100Z,88.40
2022-08-19T01:06:53.100Z,88.40
2022-08-19T01:07:53.078Z,88.50
2022-08-19T01:08:53.096Z,88.60
2022-08-19T01:09:53.075Z,88.60
2022-08-19T01:10:53.057Z,88.70
2022-08-19T01:11:53.021Z,88.60
2022-08-19T01:12:53.193Z,88.40
2022-08-19T01:13:53.060Z,88.40
2022-08-19T01:14:53.004Z,88.30
2022-08-19T01:15:52.984Z,88.34
2022-08-19T01:16:52.970Z,88.34
2022-08-19T01:17:52.972Z,88.34
2022-08-19T01:18:52.982Z,88.34
2022-08-19T01:19:52.966Z,88.34
2022-08-19T01:20:52.925Z,88.24
2022-08-19T01:21:52.934Z,88.24
2022-08-19T01:22:53.151Z,88.24
2022-08-19T01:23:52.933Z,88.24
2022-08-19T01:24:52.917Z,88.24
2022-08-19T01:25:52.866Z,88.14
2022-08-19T01:26:52.884Z,88.04
2022-08-19T01:27:53.563Z,88.24
2022-08-19T01:28:52.844Z,88.24
2022-08-19T01:29:52.848Z,88.24
2022-08-19T01:30:52.811Z,88.34
2022-08-19T01:31:52.808Z,88.34
2022-08-19T01:32:52.926Z,88.45
2022-08-19T01:33:52.780Z,88.45
2022-08-19T01:34:52.793Z,88.54
2022-08-19T01:35:52.773Z,88.68
2022-08-19T01:36:52.746Z,88.85
2022-08-19T01:37:52.744Z,88.89
2022-08-19T01:38:52.728Z,88.89
2022-08-19T01:39:52.804Z,88.89
2022-08-19T01:40:52.704Z,88.79
2022-08-19T01:41:52.718Z,88.79
2022-08-19T01:42:52.790Z,88.89
2022-08-19T01:44:13.711Z,88.89
2022-08-19T01:44:52.657Z,88.99
2022-08-19T01:45:52.675Z,89.09
2022-08-19T01:46:52.633Z,89.29
2022-08-19T01:48:01.908Z,89.39
2022-08-19T01:48:52.627Z,89.29
2022-08-19T01:49:52.629Z,89.50
2022-08-19T01:50:52.631Z,89.50
2022-08-19T01:51:52.595Z,89.59
2022-08-19T01:53:02.274Z,89.70
2022-08-19T01:53:52.567Z,89.70
2022-08-19T01:54:52.540Z,89.70
2022-08-19T01:55:52.614Z,89.59
2022-08-19T01:56:52.551Z,89.70
2022-08-19T01:57:52.518Z,89.79
2022-08-19T01:58:52.495Z,89.90
2022-08-19T01:59:52.522Z,90.00
2022-08-19T02:00:52.482Z,90.10
2022-08-19T02:01:52.589Z,90.30
2022-08-19T02:02:52.638Z,90.34
2022-08-19T02:03:52.448Z,90.24
2022-08-19T02:04:52.445Z,90.14
2022-08-19T02:05:52.425Z,90.04
2022-08-19T02:06:52.417Z,89.94
2022-08-19T02:07:52.439Z,89.84
2022-08-19T02:08:52.393Z,89.74
2022-08-19T02:09:52.420Z,89.74
2022-08-19T02:10:52.392Z,89.74
2022-08-19T02:11:52.360Z,89.64
2022-08-19T02:12:52.555Z,89.64
2022-08-19T02:13:52.346Z,89.64
2022-08-19T02:14:52.321Z,89.64
2022-08-19T02:15:52.316Z,89.64
2022-08-19T02:16:52.304Z,89.64
2022-08-19T02:17:52.292Z,89.43
2022-08-19T02:18:52.296Z,89.34
2022-08-19T02:19:52.273Z,89.37
2022-08-19T02:20:52.262Z,89.37
2022-08-19T02:21:52.258Z,89.43
2022-08-19T02:22:52.354Z,89.68
2022-08-19T02:23:52.265Z,89.68
2022-08-19T02:24:52.234Z,89.68
2022-08-19T02:25:52.199Z,89.68
2022-08-19T02:26:52.185Z,89.78
2022-08-19T02:27:52.198Z,89.88
2022-08-19T02:28:52.161Z,89.78
2022-08-19T02:29:52.181Z,89.78
2022-08-19T02:30:52.139Z,89.78
2022-08-19T02:31:52.133Z,89.88
2022-08-19T02:32:52.117Z,89.88
2022-08-19T02:33:52.124Z,89.88
2022-08-19T02:34:52.135Z,89.78
2022-08-19T02:35:52.087Z,89.78
2022-08-19T02:36:52.390Z,89.78
2022-08-19T02:37:52.066Z,89.83
2022-08-19T02:38:54.741Z,89.83
2022-08-19T02:39:52.098Z,89.92
2022-08-19T02:40:52.091Z,89.83
2022-08-19T02:41:52.017Z,89.83
2022-08-19T02:42:52.091Z,89.83
2022-08-19T02:44:30.529Z,89.83
2022-08-19T02:44:51.998Z,89.83
2022-08-19T02:45:51.994Z,89.83
2022-08-19T02:46:52.815Z,89.92
2022-08-19T02:47:51.967Z,89.92
2022-08-19T02:48:51.949Z,90.03
2022-08-19T02:49:51.945Z,90.03
2022-08-19T02:50:53.598Z,90.12
2022-08-19T02:51:51.903Z,90.23
2022-08-19T02:52:52.137Z,90.23
2022-08-19T02:53:51.887Z,90.33
2022-08-19T02:54:51.870Z,90.33
2022-08-19T02:55:51.863Z,90.23
2022-08-19T02:56:51.883Z,90.23
2022-08-19T02:57:51.856Z,90.33
2022-08-19T02:58:51.829Z,90.47
2022-08-19T02:59:51.845Z,90.58
2022-08-19T03:00:51.874Z,90.63
2022-08-19T03:01:51.817Z,90.73
2022-08-19T03:02:51.848Z,90.88
2022-08-19T03:03:51.769Z,90.83
2022-08-19T03:04:51.769Z,90.94
2022-08-19T03:05:56.248Z,91.03
2022-08-19T03:06:51.762Z,91.03
2022-08-19T03:07:51.750Z,90.94
2022-08-19T03:08:51.738Z,90.83
2022-08-19T03:09:51.716Z,90.73
2022-08-19T03:10:51.700Z,90.73
2022-08-19T03:11:52.657Z,90.63
2022-08-19T03:12:51.892Z,90.67
2022-08-19T03:13:51.674Z,90.67
2022-08-19T03:14:51.651Z,90.67
2022-08-19T03:15:51.653Z,90.67
2022-08-19T03:16:51.640Z,90.58
2022-08-19T03:17:51.614Z,90.58
2022-08-19T03:18:51.638Z,90.58
2022-08-19T03:19:51.594Z,90.67
2022-08-19T03:20:51.607Z,90.67
2022-08-19T03:21:51.583Z,90.67
2022-08-19T03:22:51.730Z,90.67
2022-08-19T03:23:51.580Z,90.67
2022-08-19T03:24:51.559Z,90.67
2022-08-19T03:26:03.227Z,90.58
2022-08-19T03:26:51.524Z,90.58
2022-08-19T03:27:51.515Z,90.58
2022-08-19T03:28:58.234Z,90.67
2022-08-19T03:29:51.493Z,90.58
2022-08-19T03:30:51.497Z,90.67
2022-08-19T03:31:51.966Z,90.73
2022-08-19T03:32:57.242Z,90.94
2022-08-19T03:33:51.484Z,91.14
2022-08-19T03:34:51.431Z,91.44
2022-08-19T03:35:51.420Z,91.54
2022-08-19T03:36:51.440Z,91.54
2022-08-19T03:37:51.398Z,91.54
2022-08-19T03:38:51.386Z,91.64
2022-08-19T03:39:51.466Z,91.54
2022-08-19T03:40:51.363Z,91.34
2022-08-19T03:42:31.736Z,91.34
2022-08-19T03:42:51.344Z,91.38
2022-08-19T03:43:51.332Z,91.38
2022-08-19T03:44:51.334Z,91.58
2022-08-19T03:45:51.317Z,91.89
2022-08-19T03:46:51.308Z,91.99
2022-08-19T03:47:51.287Z,91.99
2022-08-19T03:48:51.279Z,91.99
2022-08-19T03:49:51.311Z,91.99
2022-08-19T03:50:51.262Z,91.99
2022-08-19T03:51:51.262Z,91.99
2022-08-19T03:52:51.399Z,91.99
2022-08-19T03:53:51.255Z,91.94
2022-08-19T03:54:51.209Z,91.94
2022-08-19T03:55:51.232Z,91.85
2022-08-19T03:56:51.182Z,91.85
2022-08-19T03:57:51.187Z,91.85
2022-08-19T03:58:51.155Z,91.74
2022-08-19T03:59:51.151Z,91.74
2022-08-19T04:00:51.172Z,91.64
2022-08-19T04:01:51.125Z,91.64
2022-08-19T04:02:58.260Z,91.74
2022-08-19T04:03:51.126Z,91.74
2022-08-19T04:04:51.095Z,91.74
2022-08-19T04:05:51.117Z,91.85
2022-08-19T04:06:51.074Z,91.85
2022-08-19T04:07:51.057Z,91.99
2022-08-19T04:08:51.048Z,91.99
2022-08-19T04:09:51.038Z,91.89
2022-08-19T04:10:51.024Z,91.78
2022-08-19T04:11:51.035Z,91.78
2022-08-19T04:12:51.074Z,91.78
2022-08-19T04:13:51.008Z,91.78
2022-08-19T04:14:50.979Z,91.89
2022-08-19T04:15:51.024Z,91.78
2022-08-19T04:16:50.987Z,91.78
2022-08-19T04:17:50.960Z,91.89
2022-08-19T04:18:50.943Z,91.99
2022-08-19T04:19:50.936Z,91.89
2022-08-19T04:20:50.934Z,91.89
2022-08-19T04:21:50.902Z,91.74
2022-08-19T04:22:50.904Z,91.74
2022-08-19T04:23:50.889Z,91.64
2022-08-19T04:24:50.888Z,91.54
2022-08-19T04:25:50.880Z,91.54
2022-08-19T04:26:50.865Z,91.49
2022-08-19T04:27:50.844Z,91.44
2022-08-19T04:28:50.856Z,91.38
2022-08-19T04:29:50.821Z,91.28
2022-08-19T04:30:50.836Z,91.18
2022-08-19T04:31:50.805Z,91.18
2022-08-19T04:32:50.789Z,91.18
2022-08-19T04:33:50.783Z,91.18
2022-08-19T04:35:01.278Z,91.18
2022-08-19T04:35:50.803Z,91.03
2022-08-19T04:36:50.740Z,91.08
2022-08-19T04:37:50.762Z,90.98
2022-08-19T04:38:50.719Z,90.98
2022-08-19T04:39:50.743Z,90.98
2022-08-19T04:40:50.694Z,90.88
2022-08-19T04:41:50.743Z,90.78
2022-08-19T04:42:50.677Z,90.78
2022-08-19T04:43:50.669Z,90.78
2022-08-19T04:44:50.653Z,90.88
2022-08-19T04:45:50.664Z,90.98
2022-08-19T04:46:51.257Z,91.18
2022-08-19T04:47:58.262Z,91.28
2022-08-19T04:48:50.615Z,91.38
2022-08-19T04:49:50.614Z,91.38
2022-08-19T04:50:50.604Z,91.49
2022-08-19T04:51:50.585Z,91.49
2022-08-19T04:52:50.565Z,91.38
2022-08-19T04:53:50.555Z,91.49
2022-08-19T04:54:50.552Z,91.49
2022-08-19T04:55:50.584Z,91.49
2022-08-19T04:56:50.549Z,91.44
2022-08-19T04:57:50.505Z,91.44
2022-08-19T04:58:50.497Z,91.64
2022-08-19T04:59:50.485Z,91.74
2022-08-19T05:00:50.547Z,91.74
2022-08-19T05:01:50.476Z,91.74
2022-08-19T05:02:50.469Z,91.74
2022-08-19T05:03:50.454Z,91.74
2022-08-19T05:04:50.431Z,91.85
2022-08-19T05:05:50.444Z,91.85
2022-08-19T05:06:50.411Z,91.85
2022-08-19T05:07:50.397Z,91.94
2022-08-19T05:08:50.388Z,92.05
2022-08-19T05:09:57.848Z,92.05
2022-08-19T05:10:50.397Z,91.94
2022-08-19T05:11:50.359Z,91.94
2022-08-19T05:12:50.342Z,91.94
2022-08-19T05:13:50.338Z,91.85
2022-08-19T05:14:50.319Z,91.74
2022-08-19T05:15:50.333Z,91.60
2022-08-19T05:16:55.917Z,91.50
2022-08-19T05:17:50.301Z,91.39
2022-08-19T05:18:50.285Z,91.30
2022-08-19T05:19:50.268Z,91.19
2022-08-19T05:20:50.276Z,91.19
2022-08-19T05:21:50.245Z,90.95
2022-08-19T05:22:50.311Z,90.95
2022-08-19T05:23:50.231Z,90.95
2022-08-19T05:25:11.248Z,90.75
2022-08-19T05:25:50.244Z,90.65
2022-08-19T05:26:50.191Z,90.65
2022-08-19T05:27:50.190Z,90.50
2022-08-19T05:28:53.045Z,90.50
2022-08-19T05:29:50.179Z,90.50
2022-08-19T05:30:50.160Z,90.41
2022-08-19T05:31:50.135Z,90.30
2022-08-19T05:32:50.153Z,90.10
2022-08-19T05:33:50.111Z,89.95
2022-08-19T05:34:50.101Z,89.95
2022-08-19T05:35:50.118Z,89.86
2022-08-19T05:36:50.077Z,89.86
2022-08-19T05:37:50.101Z,89.75
2022-08-19T05:38:50.066Z,89.51
2022-08-19T05:39:51.691Z,89.41
2022-08-19T05:40:50.089Z,89.31
2022-08-19T05:41:50.026Z,89.21
2022-08-19T05:42:55.034Z,89.06
2022-08-19T05:43:50.042Z,88.96
2022-08-19T05:44:50.034Z,88.96
2022-08-19T05:45:49.980Z,88.86
2022-08-19T05:46:49.995Z,88.92
2022-08-19T05:47:49.972Z,88.92
2022-08-19T05:48:49.949Z,88.82
2022-08-19T05:49:49.964Z,88.82
2022-08-19T05:50:49.960Z,88.82
2022-08-19T05:51:49.919Z,88.82
2022-08-19T05:52:50.176Z,88.72
2022-08-19T05:53:49.888Z,88.68
2022-08-19T05:54:51.384Z,88.68
2022-08-19T05:55:49.892Z,89.28
2022-08-19T05:56:49.932Z,89.59
2022-08-19T05:57:49.888Z,89.69
2022-08-19T05:58:49.834Z,89.59
2022-08-19T05:59:53.307Z,90.29
2022-08-19T06:00:49.817Z,90.59
2022-08-19T06:01:49.826Z,91.34
2022-08-19T06:02:49.917Z,91.64
2022-08-19T06:03:49.774Z,92.35
2022-08-19T06:04:49.768Z,92.55
2022-08-19T06:05:51.951Z,92.45
2022-08-19T06:06:49.745Z,92.14
2022-08-19T06:07:49.780Z,92.95
2022-08-19T06:08:49.732Z,93.26
2022-08-19T06:09:59.193Z,93.46
2022-08-19T06:10:49.722Z,93.35
2022-08-19T06:11:51.854Z,93.15
2022-08-19T06:12:49.677Z,92.95
2022-08-19T06:13:49.678Z,92.85
2022-08-19T06:15:00.530Z,92.65
2022-08-19T06:15:49.704Z,92.40
2022-08-19T06:16:49.637Z,92.00
2022-08-19T06:17:49.725Z,92.05
2022-08-19T06:18:49.611Z,91.85
2022-08-19T06:19:49.592Z,91.70
2022-08-19T06:20:55.787Z,91.60
2022-08-19T06:21:49.615Z,91.50
2022-08-19T06:22:49.564Z,91.30
2022-08-19T06:23:49.598Z,91.09
2022-08-19T06:24:49.594Z,90.89
2022-08-19T06:25:49.594Z,90.79
2022-08-19T06:26:49.522Z,90.65
2022-08-19T06:28:13.463Z,90.75
2022-08-19T06:28:49.542Z,90.65
2022-08-19T06:29:49.485Z,90.75
2022-08-19T06:30:49.527Z,91.05
2022-08-19T06:31:49.459Z,91.35
2022-08-19T06:32:49.454Z,91.25
2022-08-19T06:33:50.243Z,91.11
2022-08-19T06:34:49.431Z,90.81
2022-08-19T06:35:49.485Z,90.81
2022-08-19T06:36:49.430Z,90.66
2022-08-19T06:37:49.408Z,90.56
2022-08-19T06:38:49.438Z,90.46
2022-08-19T06:39:49.410Z,90.12
2022-08-19T06:40:49.465Z,90.02
2022-08-19T06:41:52.462Z,89.92
2022-08-19T06:42:54.834Z,89.92
2022-08-19T06:43:49.724Z,89.62
2022-08-19T06:44:49.361Z,89.62
2022-08-19T06:45:49.377Z,89.58
2022-08-19T06:46:54.882Z,89.37
2022-08-19T06:47:49.447Z,89.17
2022-08-19T06:48:49.307Z,89.37
2022-08-19T06:49:49.284Z,89.13
2022-08-19T06:50:49.258Z,89.13
2022-08-19T06:51:49.439Z,89.13
2022-08-19T06:52:49.338Z,89.53
2022-08-19T06:54:56.141Z,89.23
2022-08-19T06:55:49.228Z,89.13
2022-08-19T06:56:49.186Z,88.79
2022-08-19T06:57:49.417Z,88.79
2022-08-19T06:58:49.172Z,88.48
2022-08-19T06:59:49.154Z,88.79
2022-08-19T07:00:49.169Z,88.89
2022-08-19T07:01:49.139Z,88.59
2022-08-19T07:02:53.255Z,88.29
2022-08-19T07:03:49.124Z,88.24
2022-08-19T07:04:52.565Z,87.74
2022-08-19T07:05:49.130Z,87.84
2022-08-19T07:06:54.896Z,87.80
2022-08-19T07:07:49.073Z,87.50
2022-08-19T07:08:49.068Z,87.24
2022-08-19T07:09:57.921Z,87.50
2022-08-19T07:10:49.084Z,87.60
2022-08-19T07:11:49.075Z,87.05
2022-08-19T07:12:49.147Z,87.05
2022-08-19T07:13:49.021Z,86.76
2022-08-19T07:14:49.026Z,86.76
2022-08-19T07:15:49.014Z,86.52
2022-08-19T07:16:49.030Z,86.11
2022-08-19T07:17:52.418Z,85.82
2022-08-19T07:18:48.957Z,85.77
2022-08-19T07:19:48.997Z,85.57
2022-08-19T07:20:48.946Z,85.68
2022-08-19T07:21:48.917Z,85.53
2022-08-19T07:22:48.955Z,84.63
2022-08-19T07:23:48.900Z,84.23
2022-08-19T07:24:51.292Z,84.43
2022-08-19T07:25:52.964Z,84.43
2022-08-19T07:26:51.868Z,84.63
2022-08-19T07:27:48.865Z,84.43
2022-08-19T07:28:52.868Z,84.03
2022-08-19T07:29:48.881Z,84.33
2022-08-19T07:30:48.850Z,83.63
2022-08-19T07:31:48.813Z,83.73
2022-08-19T07:32:48.789Z,83.73
2022-08-19T07:33:48.792Z,84.13
2022-08-19T07:34:48.772Z,84.03
2022-08-19T07:35:48.778Z,84.13
2022-08-19T07:36:48.742Z,84.13
2022-08-19T07:37:48.736Z,84.03
2022-08-19T07:38:48.728Z,83.69
2022-08-19T07:39:48.781Z,83.89
2022-08-19T07:40:48.710Z,83.69
2022-08-19T07:41:48.709Z,83.55
2022-08-19T07:42:48.682Z,83.65
2022-08-19T07:43:48.677Z,83.25
2022-08-19T07:44:50.769Z,83.35
2022-08-19T07:45:48.679Z,83.05
2022-08-19T07:46:50.346Z,82.85
2022-08-19T07:47:51.209Z,82.85
2022-08-19T07:48:48.648Z,82.85
2022-08-19T07:49:48.591Z,82.55
2022-08-19T07:50:48.607Z,82.65
2022-08-19T07:51:48.578Z,82.45
2022-08-19T07:52:48.984Z,82.11
2022-08-19T07:53:48.547Z,82.25
2022-08-19T07:54:48.542Z,82.35
2022-08-19T07:55:48.539Z,82.61
2022-08-19T07:56:48.584Z,82.41
2022-08-19T07:57:48.570Z,82.01
2022-08-19T07:58:48.515Z,82.21
2022-08-19T07:59:48.482Z,80.91
2022-08-19T08:00:48.504Z,81.51
2022-08-19T08:01:48.525Z,81.71
2022-08-19T08:02:48.448Z,81.92
2022-08-19T08:03:48.437Z,81.71
2022-08-19T08:04:48.466Z,81.37
2022-08-19T08:05:48.451Z,80.77
2022-08-19T08:06:48.412Z,80.58
2022-08-19T08:07:48.395Z,81.27
2022-08-19T08:08:48.599Z,80.94
2022-08-19T08:09:49.770Z,80.14
2022-08-19T08:10:53.074Z,80.14
2022-08-19T08:11:48.383Z,80.04
2022-08-19T08:13:08.589Z,79.34
2022-08-19T08:13:48.346Z,79.10
2022-08-19T08:14:48.329Z,79.20
2022-08-19T08:15:48.325Z,78.86
2022-08-19T08:16:48.298Z,78.53
2022-08-19T08:17:51.442Z,78.13
2022-08-19T08:18:50.555Z,76.79
2022-08-19T08:19:48.261Z,76.40
2022-08-19T08:20:48.276Z,75.50
2022-08-19T08:21:48.257Z,76.90
2022-08-19T08:22:48.279Z,75.70
2022-08-19T08:23:48.543Z,76.40
2022-08-19T08:24:48.221Z,76.50
2022-08-19T08:25:49.267Z,76.76
2022-08-19T08:26:52.035Z,76.86
2022-08-19T08:27:48.203Z,76.43
2022-08-19T08:28:49.596Z,75.23
2022-08-19T08:29:48.164Z,74.93
2022-08-19T08:30:48.171Z,75.53
2022-08-19T08:31:48.133Z,75.23
2022-08-19T08:32:48.135Z,74.69
2022-08-19T08:33:48.112Z,74.20
2022-08-19T08:34:51.771Z,74.50
2022-08-19T08:35:48.116Z,74.76
2022-08-19T08:36:48.087Z,72.41
2022-08-19T08:37:49.852Z,71.25
2022-08-19T08:38:48.087Z,72.05
2022-08-19T08:39:48.408Z,73.44
2022-08-19T08:40:48.035Z,73.41
2022-08-19T08:41:48.052Z,73.30
2022-08-19T08:42:48.011Z,73.21
2022-08-19T08:43:48.007Z,72.71
2022-08-19T08:44:48.035Z,72.11
2022-08-19T08:45:53.533Z,71.91
2022-08-19T08:46:47.983Z,72.01
2022-08-19T08:47:47.981Z,72.31
2022-08-19T08:48:47.950Z,71.91
2022-08-19T08:49:47.937Z,71.31
2022-08-19T08:50:47.966Z,70.52
2022-08-19T08:51:47.956Z,70.72
2022-08-19T08:52:47.989Z,70.62
2022-08-19T08:53:47.905Z,70.92
2022-08-19T08:54:48.878Z,70.68
2022-08-19T08:55:47.875Z,70.29
2022-08-19T08:56:47.876Z,69.66
2022-08-19T08:57:47.913Z,70.36
2022-08-19T08:58:51.428Z,70.25
2022-08-19T08:59:47.836Z,69.59
2022-08-19T09:00:47.853Z,68.80
2022-08-19T09:01:47.834Z,69.39
2022-08-19T09:02:50.943Z,69.39
2022-08-19T09:03:47.793Z,69.99
2022-08-19T09:04:47.780Z,70.25
2022-08-19T09:05:48.573Z,70.02
2022-08-19T09:06:47.747Z,68.20
2022-08-19T09:07:47.798Z,69.39
2022-08-19T09:08:47.829Z,68.86
2022-08-19T09:09:47.729Z,68.04
2022-08-19T09:10:47.705Z,68.13
2022-08-19T09:11:47.726Z,65.56
2022-08-19T09:12:47.702Z,65.46
2022-08-19T09:13:47.670Z,66.05
2022-08-19T09:14:50.608Z,65.53
2022-08-19T09:15:47.669Z,64.93
2022-08-19T09:16:47.644Z,65.79
2022-08-19T09:17:50.157Z,65.39
2022-08-19T09:18:47.627Z,64.43
2022-08-19T09:19:47.611Z,65.42
2022-08-19T09:20:47.635Z,65.82
2022-08-19T09:21:47.590Z,64.60
2022-08-19T09:22:47.645Z,65.89
2022-08-19T09:23:47.568Z,65.49
2022-08-19T09:24:47.564Z,65.20
2022-08-19T09:25:47.582Z,64.80
2022-08-19T09:26:52.551Z,65.62
2022-08-19T09:27:47.542Z,65.92
2022-08-19T09:28:48.677Z,66.49
2022-08-19T09:29:47.507Z,64.73
2022-08-19T09:30:47.498Z,63.84
2022-08-19T09:31:47.505Z,65.46
2022-08-19T09:32:47.480Z,66.35
2022-08-19T09:33:47.470Z,66.65
2022-08-19T09:34:50.849Z,67.14
2022-08-19T09:35:49.745Z,65.82
2022-08-19T09:36:47.455Z,66.61
2022-08-19T09:37:47.425Z,64.60
2022-08-19T09:38:47.415Z,65.23
2022-08-19T09:39:47.439Z,62.92
2022-08-19T09:40:47.417Z,63.31
2022-08-19T09:41:49.147Z,62.88
2022-08-19T09:42:50.003Z,62.12
2022-08-19T09:43:47.987Z,63.71
2022-08-19T09:44:47.355Z,63.91
2022-08-19T09:45:47.335Z,63.71
2022-08-19T09:46:47.343Z,62.52
2022-08-19T09:47:47.391Z,62.65
2022-08-19T09:48:47.308Z,62.29
2022-08-19T09:49:47.292Z,62.58
2022-08-19T09:50:51.743Z,63.80
2022-08-19T09:51:51.077Z,65.09
2022-08-19T09:52:55.161Z,63.60
2022-08-19T09:53:47.258Z,64.37
2022-08-19T09:54:52.057Z,62.42
2022-08-19T09:55:47.268Z,62.49
2022-08-19T09:56:47.216Z,62.49
2022-08-19T09:57:47.271Z,60.08
2022-08-19T09:58:47.208Z,61.07
2022-08-19T09:59:47.187Z,59.95
2022-08-19T10:00:47.181Z,59.95
2022-08-19T10:01:47.279Z,60.19
2022-08-19T10:02:47.154Z,59.59
2022-08-19T10:03:47.147Z,58.80
2022-08-19T10:04:47.134Z,60.21
2022-08-19T10:05:48.650Z,59.62
2022-08-19T10:06:47.185Z,58.65
2022-08-19T10:07:47.108Z,60.94
2022-08-19T10:08:50.250Z,60.71
2022-08-19T10:09:47.072Z,59.81
2022-08-19T10:10:47.275Z,60.31
2022-08-19T10:11:54.611Z,60.48
2022-08-19T10:12:47.045Z,59.30
2022-08-19T10:13:47.026Z,58.40
2022-08-19T10:14:47.011Z,58.33
2022-08-19T10:15:48.040Z,58.03
2022-08-19T10:16:46.989Z,58.73
2022-08-19T10:17:48.228Z,60.71
2022-08-19T10:18:49.676Z,58.33
2022-08-19T10:19:55.166Z,59.39
2022-08-19T10:20:51.850Z,58.87
2022-08-19T10:21:46.963Z,57.06
2022-08-19T10:22:46.918Z,56.46
2022-08-19T10:23:46.933Z,57.16
2022-08-19T10:24:46.901Z,57.56
2022-08-19T10:25:46.927Z,56.17
2022-08-19T10:26:46.910Z,55.18
2022-08-19T10:27:51.440Z,56.86
2022-08-19T10:28:47.167Z,55.85
2022-08-19T10:29:46.856Z,56.91
2022-08-19T10:30:46.866Z,54.44
2022-08-19T10:32:00.689Z,54.34
2022-08-19T10:32:46.855Z,54.66
2022-08-19T10:33:53.849Z,55.45
2022-08-19T10:34:48.045Z,54.93
2022-08-19T10:35:57.535Z,52.66
2022-08-19T10:36:53.809Z,53.85
2022-08-19T10:37:56.729Z,52.46
2022-08-19T10:38:53.459Z,53.87
2022-08-19T10:39:46.814Z,54.56
2022-08-19T10:40:46.741Z,53.67
2022-08-19T10:41:46.754Z,52.56
2022-08-19T10:42:46.714Z,54.63
2022-08-19T10:43:46.711Z,53.03
2022-08-19T10:44:46.683Z,52.44
2022-08-19T10:45:52.636Z,53.39
2022-08-19T10:46:48.854Z,54.46
2022-08-19T10:47:46.650Z,52.16
2022-08-19T10:48:46.647Z,52.75
2022-08-19T10:49:46.630Z,52.92
2022-08-19T10:50:46.658Z,52.21
2022-08-19T10:51:47.914Z,48.76
2022-08-19T10:52:49.760Z,52.11
2022-08-19T10:53:46.596Z,50.73
2022-08-19T10:54:46.579Z,50.14
2022-08-19T10:55:46.560Z,51.74
2022-08-19T10:56:46.579Z,50.66
2022-08-19T10:58:01.817Z,52.14
2022-08-19T10:58:46.534Z,52.83
2022-08-19T10:59:46.519Z,50.95
2022-08-19T11:00:46.619Z,52.33
2022-08-19T11:01:46.518Z,52.11
2022-08-19T11:02:46.482Z,50.26
2022-08-19T11:03:46.466Z,51.94
2022-08-19T11:04:46.456Z,51.67
2022-08-19T11:05:46.468Z,52.68
2022-08-19T11:06:46.447Z,53.50
2022-08-19T11:07:46.418Z,55.74
2022-08-19T11:08:46.483Z,55.71
2022-08-19T11:09:46.405Z,54.99
2022-08-19T11:10:48.028Z,54.90
2022-08-19T11:11:46.371Z,52.90
2022-08-19T11:12:46.367Z,53.69
2022-08-19T11:13:46.352Z,53.56
2022-08-19T11:14:46.357Z,52.06
2022-08-19T11:15:46.363Z,53.34
2022-08-19T11:16:46.329Z,51.47
2022-08-19T11:17:46.309Z,51.37
2022-08-19T11:18:46.323Z,49.23
2022-08-19T11:19:46.303Z,50.59
2022-08-19T11:20:46.304Z,53.15
2022-08-19T11:21:46.271Z,51.28
2022-08-19T11:22:46.258Z,51.15
2022-08-19T11:23:46.247Z,50.16
2022-08-19T11:24:46.236Z,49.85
2022-08-19T11:25:46.219Z,49.18
2022-08-19T11:26:46.241Z,51.35
2022-08-19T11:27:46.217Z,50.46
2022-08-19T11:28:46.204Z,53.02
2022-08-19T11:29:46.181Z,51.94
2022-08-19T11:30:46.193Z,50.95
2022-08-19T11:31:46.158Z,52.90
2022-08-19T11:32:49.338Z,50.63
2022-08-19T11:33:46.141Z,53.30
2022-08-19T11:34:46.127Z,51.23
2022-08-19T11:35:46.141Z,51.59
2022-08-19T11:36:46.107Z,50.81
2022-08-19T11:37:46.129Z,52.95
2022-08-19T11:38:46.090Z,50.66
2022-08-19T11:39:46.111Z,50.07
2022-08-19T11:40:46.070Z,50.85
2022-08-19T11:41:46.081Z,50.37
2022-08-19T11:42:46.034Z,50.59
2022-08-19T11:43:46.037Z,51.47
2022-08-19T11:44:46.028Z,51.30
2022-08-19T11:45:46.027Z,51.20
2022-08-19T11:46:46.019Z,52.87
2022-08-19T11:47:45.994Z,53.88
2022-08-19T11:48:45.977Z,51.52
2022-08-19T11:49:45.974Z,51.42
2022-08-19T11:50:45.976Z,51.52
2022-08-19T11:51:45.949Z,51.45
2022-08-19T11:52:45.953Z,53.15
2022-08-19T11:53:45.927Z,52.78
2022-08-19T11:54:45.914Z,52.80
2022-08-19T11:55:45.909Z,52.80
2022-08-19T11:56:45.904Z,54.58
2022-08-19T11:57:45.883Z,52.91
2022-08-19T11:58:45.867Z,53.59
2022-08-19T11:59:45.887Z,53.89
2022-08-19T12:00:45.858Z,53.39
2022-08-19T12:01:45.843Z,53.00
2022-08-19T12:02:45.827Z,53.20
2022-08-19T12:03:45.858Z,53.57
2022-08-19T12:04:45.799Z,52.98
2022-08-19T12:05:45.820Z,53.15
2022-08-19T12:06:45.808Z,54.46
2022-08-19T12:07:45.777Z,55.72
2022-08-19T12:08:45.750Z,55.30
2022-08-19T12:09:45.987Z,53.50
2022-08-19T12:10:45.729Z,52.01
2022-08-19T12:11:45.761Z,52.93
2022-08-19T12:12:45.723Z,52.70
2022-08-19T12:13:45.713Z,53.67
2022-08-19T12:14:45.686Z,51.47
2022-08-19T12:15:45.692Z,50.68
2022-08-19T12:16:51.468Z,53.22
2022-08-19T12:17:45.656Z,50.85
2022-08-19T12:18:45.653Z,52.14
2022-08-19T12:19:45.627Z,51.15
2022-08-19T12:20:45.637Z,51.57
2022-08-19T12:21:45.621Z,51.37
2022-08-19T12:22:45.597Z,52.23
2022-08-19T12:23:45.603Z,51.03
2022-08-19T12:24:45.584Z,51.79
2022-08-19T12:25:45.576Z,51.76
2022-08-19T12:26:53.477Z,47.63
2022-08-19T12:27:52.871Z,48.94
2022-08-19T12:28:45.537Z,49.45
2022-08-19T12:29:45.535Z,49.55
2022-08-19T12:30:45.528Z,49.82
2022-08-19T12:31:45.512Z,49.13
2022-08-19T12:32:45.491Z,50.19
2022-08-19T12:33:45.484Z,49.73
2022-08-19T12:34:45.469Z,49.82
2022-08-19T12:35:45.835Z,49.38
2022-08-19T12:36:45.444Z,51.54
2022-08-19T12:37:45.441Z,51.54
2022-08-19T12:38:45.440Z,50.14
2022-08-19T12:39:45.460Z,50.07
2022-08-19T12:40:45.426Z,49.57
2022-08-19T12:41:54.803Z,49.99
2022-08-19T12:42:45.396Z,51.45
2022-08-19T12:43:45.373Z,48.69
2022-08-19T12:44:45.370Z,47.80
2022-08-19T12:45:45.386Z,49.75
2022-08-19T12:46:45.348Z,47.56
2022-08-19T12:47:45.376Z,48.25
2022-08-19T12:48:45.337Z,47.09
2022-08-19T12:49:54.042Z,48.51
2022-08-19T12:50:45.333Z,48.34
2022-08-19T12:51:45.289Z,48.46
2022-08-19T12:52:45.295Z,48.27
2022-08-19T12:53:45.269Z,47.77